x

Stonewall Bank - 20nm West Of Newport, Or (46050) Wave Buoy

11:50pm - Fri 22nd Sep 2017 All times are PDT. -7 hours from GMT.

  • Sig Wave height 5.6ft
  • Swell Direction
  • Peak Period 9s
  • Average Period 7s
  • Wind
  • Sea Temp 58°f
  • Air Temp 58°f
  • Sea Pressure 1018.8mb
  • Stonewall Bank - 20nm West Of Newport, Or
  • Stonewall Bank - 20nm West Of Newport, Or

More Historic Weather Station data

Upgrade to MSW Pro to gain access to the past 30 days of data for over 8000 Wavebouys and Weather Stations around the globe.

Join

Comparision Forecast

View Surf forecast
   
Fri 09/22 11:50pm 5.5ft 9s 7s  -  2 mph 1018.8mb 58f 58f
11:40pm 5.5ft  -  7s  -  2 mph 1018.8mb 58f 58f
11:30pm  -   -   -   -  2 mph 1018.9mb 58f 58f
11:20pm  -   -   -   -  2 mph 1018.9mb 58f 58f
11:10pm  -   -   -   -  2 mph 1018.9mb 58f 58f
11:00pm  -   -   -  2 2 mph 1018.9mb 58f 58f
10:50pm 6.5ft 9s 7s  -  2 mph 1019mb 58f 58f
10:40pm 6.5ft  -  7s  -  2 mph 1018.9mb 58f 58f
10:30pm  -   -   -   -  2 mph 1019mb 58f 58f
10:20pm  -   -   -   -  0 mph 1018.9mb 58f 58f
10:10pm  -   -   -   -  0 mph 1019mb 58f 58f
10:00pm  -   -   -   -  0 mph 1019mb 58f 58f
9:50pm 6ft 9s 7s  -  2 mph 1019.1mb 58f 58f
9:40pm  -   -   -   -  2 mph 1019.1mb 58f 58f
9:30pm  -   -   -   -  2 mph 1019mb 59f 59f
9:20pm  -   -   -  2 4 mph 1019.1mb 59f 59f
9:10pm  -   -   -  2 4 mph 1019.1mb 59f 59f
9:00pm  -   -   -  2 4 mph 1019.2mb 58f 59f
8:50pm 6ft 10s 7s  -  2 mph 1019.1mb 58f 59f
8:40pm 6ft  -  7s  -  2 mph 1019mb 58f 59f
8:30pm  -   -   -   -  2 mph 1018.9mb 58f 59f
8:20pm  -   -   -   -  2 mph 1018.9mb 58f 59f
8:10pm  -   -   -   -  2 mph 1018.9mb 58f 59f
8:00pm  -   -   -   -  2 mph 1018.9mb 58f 59f
7:50pm 6ft 10s 7s  -  2 mph 1018.9mb 58f 59f
7:40pm  -   -   -   -  2 mph 1018.9mb 58f 59f
7:30pm  -   -   -  2 4 mph 1018.9mb - 59f
7:20pm  -   -   -  2 4 mph 1018.9mb 59f 59f
7:10pm  -   -   -  2 2 mph 1018.9mb 59f 59f
7:00pm  -   -   -  2 4 mph 1018.9mb 58f 59f
6:50pm 7ft 9s 8s 2 4 mph 1019mb 59f 59f
6:40pm 7ft  -  8s 2 4 mph 1018.9mb 59f 60f
6:30pm  -   -   -  4 7 mph 1018.9mb 59f 60f
6:20pm  -   -   -  4 7 mph 1018.8mb 59f 60f
6:10pm  -   -   -  4 7 mph 1018.8mb - 60f
6:00pm  -   -   -  4 7 mph 1018.8mb 59f 60f
5:50pm 6.5ft 10s 8s 7 9 mph 1018.7mb 59f 60f
5:40pm 6.5ft  -  8s 9 11 mph 1018.7mb 59f 60f
5:30pm  -   -   -  9 13 mph 1018.7mb 59f 60f
5:20pm  -   -   -  9 11 mph 1018.7mb - 60f
5:10pm  -   -   -  9 11 mph 1018.6mb 59f 60f
5:00pm  -   -   -  9 13 mph 1018.7mb 59f 60f
4:50pm 7ft  -  8s 9 11 mph 1018.7mb - 60f
4:40pm 7ft 10s  -   -  mph - 59f -
4:20pm  -   -   -  7 9 mph 1018.5mb 59f 59f
4:10pm  -   -   -  7 9 mph 1018.5mb 59f 59f
4:00pm  -   -   -  7 9 mph 1018.6mb 59f 59f
3:50pm 7ft 10s 8s 7 9 mph 1018.6mb 59f 59f
3:40pm  -   -   -  7 11 mph 1018.7mb 59f 59f
3:30pm  -   -   -  9 13 mph 1018.7mb 59f 59f
3:20pm  -   -   -  11 13 mph 1018.7mb 59f 59f
3:10pm  -   -   -  11 13 mph 1018.7mb 59f 59f
3:00pm  -   -   -  9 13 mph 1018.6mb 59f 59f
2:50pm 7ft 10s 8s 9 11 mph 1018.7mb 60f 59f
2:40pm 7ft  -  8s 9 11 mph 1018.7mb 59f 58f
2:30pm  -   -   -  7 9 mph 1018.6mb 59f 58f
2:20pm  -   -   -  9 9 mph 1018.7mb 59f 58f
2:10pm  -   -   -  7 9 mph 1018.6mb 59f 58f
2:00pm  -   -   -  2 9 mph 1018.5mb 59f 57f
1:50pm 7ft 10s 8s  -  2 mph 1018.5mb 59f 56f
1:40pm 7ft  -  8s  -  2 mph 1018.4mb 59f 56f
1:30pm  -   -   -   -  2 mph 1018.5mb 59f 56f
1:20pm  -   -   -   -  2 mph 1018.6mb 59f 56f
1:10pm  -   -   -   -  2 mph 1018.8mb 59f 55f
1:00pm  -   -   -   -  2 mph 1018.9mb 59f 55f
12:50pm 7ft  -  8s 2 4 mph 1019.1mb 59f 55f
12:40pm 7ft  -  8s 2 4 mph 1018.8mb 59f 55f
12:30pm  -   -   -  2 7 mph 1018.8mb 59f 55f
12:20pm  -   -   -  4 7 mph 1018.8mb 59f 55f
12:10pm  -   -   -  4 7 mph 1018.8mb 59f 55f
12:00pm  -   -   -  4 7 mph 1018.8mb 59f 55f
11:50am 7ft 10s 7s 4 7 mph 1018.8mb 59f 56f
11:40am 7ft  -  7s 4 7 mph 1018.8mb 58f 56f
11:30am  -   -   -  4 9 mph 1018.9mb 58f 57f
11:20am  -   -   -  4 7 mph 1018.9mb 58f 57f
11:10am  -   -   -  4 7 mph 1018.8mb 58f 57f
11:00am  -   -   -  7 9 mph 1018.7mb 58f 57f
10:50am 7.5ft 10s 8s 7 9 mph 1018.7mb 58f 57f
10:40am 7.5ft  -  8s 7 9 mph 1018.7mb 58f 57f
10:30am  -   -   -  7 9 mph 1018.6mb 58f 57f
10:20am  -   -   -  9 11 mph 1018.6mb 58f 57f
10:10am  -   -   -  7 11 mph 1018.7mb 58f 57f
10:00am  -   -   -  9 11 mph 1018.7mb 58f 57f
9:50am 8.5ft 10s 8s 9 11 mph 1018.6mb 58f 57f
9:40am 8.5ft  -  8s 9 13 mph 1018.6mb 58f 57f
9:30am  -   -   -  9 11 mph 1018.4mb 58f 57f
9:20am  -   -   -  9 11 mph 1018.4mb 58f 57f
9:10am  -   -   -  9 13 mph 1018.4mb 58f 57f
9:00am  -   -   -  9 13 mph 1018.5mb 58f 57f
8:50am 7.5ft 10s 8s 9 13 mph 1018.5mb - 57f
8:40am 7.5ft  -  8s 11 13 mph 1018.5mb 58f 57f
8:30am  -   -   -  11 16 mph 1018.5mb 58f 56f
8:20am  -   -   -  11 13 mph 1018.5mb 58f 56f
8:10am  -   -   -  9 13 mph 1018.4mb 58f 56f
8:00am  -   -   -  9 11 mph 1018.2mb 58f 56f
7:50am 8ft 10s 8s 9 11 mph 1018.2mb 58f 56f
7:40am 8ft  -  8s 9 11 mph 1018.1mb 58f 56f
7:30am  -   -   -  9 11 mph 1018mb 58f 56f
7:20am  -   -   -  9 13 mph 1017.9mb 58f 56f
7:10am  -   -   -  11 13 mph 1017.8mb 58f 56f
7:00am  -   -   -  11 13 mph 1017.7mb 58f 56f
6:50am 9.5ft 10s 8s 11 13 mph 1017.7mb 58f 56f
6:40am 9.5ft  -  8s 11 13 mph 1017.5mb 58f 56f
6:30am  -   -   -  11 13 mph 1017.5mb 58f 56f
6:20am  -   -   -  11 13 mph 1017.4mb 58f 56f
6:10am  -   -   -  11 13 mph 1017.4mb 58f 56f
6:00am  -   -   -  11 13 mph 1017.3mb 58f 56f
5:50am 8.5ft 11s 8s 11 13 mph 1017.3mb 58f 56f
5:40am 8.5ft  -  8s 11 16 mph 1017.2mb 58f 56f
5:30am  -   -   -  11 16 mph 1017.1mb 58f 56f
5:20am  -   -   -  11 16 mph 1017.1mb 58f 56f
5:10am  -   -   -  11 16 mph 1016.9mb 58f 57f
5:00am  -   -   -  11 16 mph 1016.8mb 58f 57f
4:50am 7.5ft 11s 8s 11 16 mph 1016.8mb 58f 57f
4:40am 7.5ft  -  8s 11 16 mph 1016.8mb 58f 57f
4:30am  -   -   -  11 13 mph 1016.8mb 58f 57f
4:20am  -   -   -  11 13 mph 1016.8mb 58f 57f
4:10am  -   -   -  11 13 mph 1016.7mb 58f 57f
4:00am  -   -   -  11 13 mph 1016.7mb 58f 57f
3:50am 9ft 11s 9s 9 13 mph 1016.6mb 58f 57f
3:40am  -   -   -  9 13 mph 1016.6mb 58f 57f
3:30am  -   -   -  9 11 mph 1016.6mb 58f 57f
3:20am  -   -   -  9 13 mph 1016.7mb 58f 57f
3:10am  -   -   -  9 13 mph 1016.7mb 58f 57f
3:00am  -   -   -  11 13 mph 1016.6mb 59f 57f
2:50am 8.5ft 10s 8s 11 13 mph 1016.5mb 59f 57f
2:40am 8.5ft  -  8s 11 13 mph 1016.6mb 59f 57f
2:30am  -   -   -  11 13 mph 1016.6mb 59f 57f
2:20am  -   -   -  9 11 mph 1016.6mb 59f 57f
2:10am  -   -   -  9 11 mph 1016.7mb 59f 57f
2:00am  -   -   -  9 13 mph 1016.7mb 59f 57f
1:50am 9.5ft 10s 9s 9 11 mph 1016.7mb 59f 57f
1:40am 9.5ft  -  9s 7 9 mph 1016.6mb 59f 57f
1:30am  -   -   -  7 9 mph 1016.5mb 59f 57f
1:20am  -   -   -  7 9 mph 1016.5mb 59f 57f
1:10am  -   -   -  7 9 mph 1016.6mb 59f 57f
1:00am  -   -   -  7 9 mph 1016.5mb 59f 57f
12:50am 8.5ft 11s 8s 7 9 mph 1016.5mb 59f 57f
12:40am 8.5ft  -  8s 7 9 mph 1016.4mb 59f 57f
12:30am  -   -   -  7 9 mph 1016.5mb 59f 57f
12:20am  -   -   -  7 9 mph 1016.4mb 59f 57f
12:10am  -   -   -  7 9 mph 1016.4mb 59f 57f
12:00am  -   -   -  7 9 mph 1016.4mb 59f 57f
Thu 09/21 11:50pm 9.5ft 11s 9s 4 9 mph 1016.4mb 59f 57f
11:40pm 9.5ft  -  9s 4 9 mph 1016.5mb 59f 57f
11:30pm  -   -   -  4 9 mph 1016.5mb 59f 57f
11:20pm  -   -   -  4 9 mph 1016.5mb 59f 57f
11:10pm  -   -   -  7 9 mph 1016.5mb 59f 57f
11:00pm  -   -   -  7 9 mph 1016.5mb 59f 57f
10:50pm 10.5ft 11s 9s 7 9 mph 1016.5mb - 57f
10:40pm 10.5ft  -  9s 7 9 mph 1016.5mb 59f 57f
10:30pm  -   -   -  7 9 mph 1016.4mb 59f 57f
10:20pm  -   -   -  4 7 mph 1016.3mb 59f 57f
10:10pm  -   -   -  4 7 mph 1016.4mb 59f 57f
10:00pm  -   -   -  4 9 mph 1016.8mb 59f 56f
9:50pm 9ft 11s 8s 4 4 mph 1016.4mb 59f 56f
9:40pm 9ft  -  8s 2 4 mph 1016.3mb 59f 56f
9:30pm  -   -   -  2 4 mph 1016.3mb 59f 56f
9:20pm  -   -   -  2 4 mph 1016.3mb 59f 56f
9:10pm  -   -   -  2 4 mph 1016.2mb 59f 56f
9:00pm  -   -   -  2 7 mph 1016.1mb 59f 56f
8:50pm 9.5ft 11s 8s 2 4 mph 1016mb 59f 56f
8:40pm 9.5ft  -  8s 2 4 mph 1015.9mb 59f 56f
8:30pm  -   -   -  2 9 mph 1015.8mb 59f 56f
8:20pm  -   -   -  2 7 mph 1015.6mb 59f 56f
8:10pm  -   -   -  2 9 mph 1015.5mb 59f 56f
8:00pm  -   -   -  4 9 mph 1015.4mb 59f 56f
7:50pm 9ft 10s 8s 4 11 mph 1015.2mb 59f 56f
7:40pm 9ft  -  8s 4 11 mph 1015.1mb 59f 56f
7:30pm  -   -   -  7 11 mph 1015mb 59f 56f
7:20pm  -   -   -  7 11 mph 1014.9mb 59f 56f
7:10pm  -   -   -  4 9 mph 1014.9mb 59f 57f
7:00pm  -   -   -  4 11 mph 1014.8mb 59f 57f
6:50pm 9.5ft 10s 8s 4 13 mph 1014.7mb 59f 57f
6:40pm 9.5ft  -  8s 7 11 mph 1014.7mb 59f 57f
6:30pm  -   -   -  7 11 mph 1014.6mb 59f 57f
6:20pm  -   -   -  9 13 mph 1014.7mb 59f 57f
6:10pm  -   -   -  9 13 mph 1014.6mb 59f 57f
6:00pm  -   -   -  9 13 mph 1014.7mb 59f 57f
5:50pm 10ft 11s 8s 11 16 mph 1014.7mb 59f 57f
5:40pm  -   -   -  11 18 mph 1014.6mb 59f 57f
5:30pm  -   -   -  13 18 mph 1014.5mb 59f 57f
5:20pm  -   -   -  13 20 mph 1014.5mb 59f 57f
5:10pm  -   -   -  13 18 mph 1015mb 59f 56f
5:00pm  -   -   -  13 18 mph 1014.5mb 59f 56f
4:50pm 8.5ft 9s 8s 11 18 mph 1014.4mb 59f 56f
4:40pm 8.5ft  -  8s 11 16 mph 1014.3mb 59f 56f
4:30pm  -   -   -  11 18 mph 1014.2mb 59f 56f
4:20pm  -   -   -  11 16 mph 1014.2mb 58f 56f
4:10pm  -   -   -  11 16 mph 1014mb 58f 56f
4:00pm  -   -   -  11 18 mph 1013.9mb 58f 56f
3:50pm 8ft 10s 7s 11 16 mph 1013.8mb 58f 56f
3:40pm 8ft  -  7s 11 16 mph 1013.7mb 58f 56f
3:30pm  -   -   -  11 16 mph 1013.7mb - 56f
3:20pm  -   -   -  11 16 mph 1013.8mb 58f 56f
3:10pm  -   -   -  9 16 mph 1013.6mb 58f 56f
3:00pm  -   -   -  9 11 mph 1013.5mb 58f 56f
2:50pm 9ft 11s 7s 9 13 mph 1013.4mb 58f 56f
2:40pm 9ft  -  7s 9 13 mph 1013.4mb 58f 56f
2:30pm  -   -   -  11 16 mph 1013.4mb 58f 56f
2:20pm  -   -   -  11 16 mph 1013.5mb 58f 56f
2:10pm  -   -   -  13 16 mph 1013.5mb 58f 55f
2:00pm  -   -   -  13 18 mph 1013.5mb 58f 55f
1:50pm 8ft 10s 7s 13 18 mph 1013.5mb 58f 55f
1:40pm  -   -   -  13 18 mph 1013.6mb 58f 55f
1:30pm  -   -   -  13 18 mph 1013.7mb 58f 55f
1:20pm  -   -   -  13 18 mph 1013.7mb 58f 55f
1:10pm  -   -   -  13 18 mph 1013.6mb 58f 55f
1:00pm  -   -   -  13 18 mph 1013.6mb 58f 55f
12:50pm 7.5ft 11s 7s 13 16 mph 1013.6mb 58f 55f
12:40pm 7.5ft  -  7s 13 18 mph 1013.7mb 57f 55f
12:30pm  -   -   -  13 18 mph 1013.6mb 57f 55f
12:20pm  -   -   -  13 18 mph 1013.7mb 57f 55f
12:10pm  -   -   -  16 20 mph 1013.6mb 57f 55f
12:00pm  -   -   -  18 20 mph 1013.6mb 57f 55f
11:50am 8.5ft 9s 7s 16 22 mph 1013.5mb 57f 55f
11:40am 8.5ft  -  7s 18 22 mph 1013.5mb 57f 55f
11:30am  -   -   -  16 22 mph 1013.6mb 57f 55f
11:20am  -   -   -  18 22 mph 1013.5mb 57f 55f
11:10am  -   -   -  18 22 mph 1013.5mb 57f 55f
11:00am  -   -   -  18 22 mph 1013.4mb 57f 55f
10:50am 9ft 11s 7s 18 22 mph 1013.4mb 57f 55f
10:40am  -   -   -  18 22 mph 1013.3mb 57f 55f
10:30am  -   -   -  18 25 mph 1013.2mb 57f 55f
10:20am  -   -   -  18 22 mph 1013.3mb 57f 55f
10:10am  -   -   -  18 22 mph 1013.2mb 58f 55f
10:00am  -   -   -  18 22 mph 1013.2mb 58f 55f
9:50am 9ft 11s 7s 18 22 mph 1013.3mb 58f 55f
9:40am 9ft  -  7s 18 22 mph 1013.2mb 58f 55f
9:30am  -   -   -  18 25 mph 1013.2mb 58f 55f
9:20am  -   -   -  18 22 mph 1013.2mb 58f 55f
9:10am  -   -   -  18 22 mph 1013.2mb 58f 55f
9:00am  -   -   -  18 22 mph 1013.1mb 58f 55f
8:50am 9.5ft 10s 8s 18 22 mph 1013.2mb - 55f
8:40am 9.5ft  -  8s 18 22 mph 1013.2mb 57f 55f
8:30am  -   -   -  18 22 mph 1013.3mb 57f 54f
8:20am  -   -   -  16 20 mph 1013.2mb 57f 55f
8:10am  -   -   -  16 22 mph 1013.1mb 57f 55f
8:00am  -   -   -  16 20 mph 1013.2mb 57f 55f
7:50am 8ft 11s 8s 16 20 mph 1013.1mb 57f 55f
7:40am 8ft  -  8s 13 18 mph 1013.2mb 57f 55f
7:30am  -   -   -  13 18 mph 1013.2mb 57f 55f
7:20am  -   -   -  13 18 mph 1013.1mb - 56f
7:10am  -   -   -  11 16 mph 1013.1mb 57f 56f
7:00am  -   -   -  9 13 mph 1013.1mb 57f 56f
6:50am 10ft 11s 8s 11 13 mph 1013mb 57f 56f
6:40am 10ft  -  8s 9 11 mph 1013mb 57f 57f
6:30am  -   -   -  9 11 mph 1013mb 57f 57f
6:20am  -   -   -  9 11 mph 1012.8mb 57f 57f
6:10am  -   -   -  9 11 mph 1012.9mb 57f 57f
6:00am  -   -   -  9 11 mph 1012.9mb - 57f
5:50am 10.5ft 11s 8s 9 13 mph 1012.9mb 57f 57f
5:40am  -   -   -  9 13 mph 1012.9mb 57f 57f
5:30am  -   -   -  9 13 mph 1012.9mb 57f 58f
5:20am  -   -   -  9 13 mph 1012.9mb 57f 58f
5:10am  -   -   -  9 13 mph 1012.7mb 57f 57f
5:00am  -   -   -  11 13 mph 1012.8mb 57f 57f
4:50am 10.5ft 10s 8s 11 13 mph 1012.8mb 57f 58f
4:40am 10.5ft  -  8s 11 13 mph 1012.8mb 57f 58f
4:30am  -   -   -  7 11 mph 1012.8mb 57f 58f
4:20am  -   -   -  4 9 mph 1012.7mb 57f 58f
4:10am  -   -   -  4 9 mph 1012.8mb 57f 58f
4:00am  -   -   -  2 9 mph 1012.7mb 57f 58f
3:50am 10ft 10s 8s  -  2 mph 1012.7mb 57f 58f
3:40am 10ft  -  8s  -  2 mph 1012.7mb 57f 58f
3:30am  -   -   -  2 7 mph 1012.6mb 57f 57f
3:20am  -   -   -  4 7 mph 1012.6mb 56f 57f
3:10am  -   -   -  4 7 mph 1012.4mb 57f 57f
3:00am  -   -   -  2 4 mph 1012.4mb 56f 57f
2:50am 10.5ft 11s 8s 2 7 mph 1012.4mb 57f 57f
2:40am 10.5ft  -  8s 4 9 mph 1012.3mb 56f 57f
2:30am  -   -   -  4 9 mph 1012.2mb 56f 57f
2:20am  -   -   -  7 13 mph 1012.3mb 57f 56f
2:10am  -   -   -  7 9 mph 1012.4mb 57f 56f
2:00am  -   -   -  7 11 mph 1012.5mb 57f 56f
1:50am 10.5ft 10s 8s 7 11 mph 1012.5mb 57f 56f
1:40am  -   -   -  9 11 mph 1012.5mb 57f 56f
1:30am  -   -   -  9 13 mph 1012.5mb 57f 56f
1:20am  -   -   -  9 13 mph 1012.4mb 57f 56f
1:10am  -   -   -  9 11 mph 1012.4mb 57f 56f
1:00am  -   -   -  7 11 mph 1012.4mb 57f 56f
12:50am 11ft 10s 8s 7 11 mph 1012.5mb 57f 56f
12:40am 11ft  -  8s 7 9 mph 1012.4mb 57f 56f
12:30am  -   -   -  7 9 mph 1012.3mb 57f 55f
12:20am  -   -   -  7 9 mph 1012.3mb - 56f
12:10am  -   -   -  4 7 mph 1012.2mb 57f 56f
12:00am  -   -   -  4 7 mph 1012.2mb 57f 55f
Wed 09/20 11:50pm 9.5ft 10s 8s 4 9 mph 1012.3mb 57f 56f
11:40pm 9.5ft  -  8s 4 7 mph 1012.3mb 57f 56f
11:30pm  -   -   -  2 7 mph 1012.3mb 57f 56f
11:20pm  -   -   -  7 13 mph 1012.3mb 57f 55f
11:10pm  -   -   -  4 11 mph 1012.2mb 57f 55f
11:00pm  -   -   -  7 13 mph 1012.2mb - 55f
10:50pm 10ft 11s 8s 7 13 mph 1012.3mb 57f 56f
10:40pm  -   -   -  4 9 mph 1012.2mb 57f 56f
10:30pm  -   -   -  2 7 mph 1012.1mb 57f 56f
10:20pm  -   -   -  2 7 mph 1012.2mb 57f 57f
10:10pm  -   -   -   -  2 mph 1012.2mb 57f 57f
10:00pm  -   -   -  2 4 mph 1012.3mb 57f 57f
9:50pm 11ft 11s 8s 2 4 mph 1012.2mb 57f 57f
9:40pm 11ft  -  8s 4 9 mph 1012.3mb 57f 57f
9:30pm  -   -   -  4 7 mph 1012.2mb 57f 57f
9:20pm  -   -   -  4 7 mph 1012.1mb 57f 57f
9:10pm  -   -   -  4 7 mph 1012mb 57f 57f
9:00pm  -   -   -  7 9 mph 1012mb 57f 57f
8:50pm 10.5ft 11s 8s 7 11 mph 1011.9mb 57f 57f
8:40pm 10.5ft  -  8s 9 11 mph 1011.9mb 57f 57f
8:30pm  -   -   -  9 11 mph 1011.9mb 57f 57f
8:20pm  -   -   -  9 13 mph 1011.9mb 58f 57f
8:10pm  -   -   -  9 11 mph 1011.7mb 58f 56f
8:00pm  -   -   -  9 13 mph 1011.6mb 58f 56f
7:50pm 10ft 11s 8s 11 13 mph 1011.4mb 58f 56f
7:40pm  -   -   -  11 16 mph 1011.3mb 58f 56f
7:30pm  -   -   -  11 13 mph 1011.1mb 58f 56f
7:20pm  -   -   -  11 13 mph 1011mb 58f 56f
7:10pm  -   -   -  11 13 mph 1011mb 58f 56f
7:00pm  -   -   -  11 13 mph 1010.9mb - 56f
6:50pm 10ft 9s 8s 11 16 mph 1010.9mb 58f 56f
6:40pm 10ft  -  8s 11 16 mph 1010.8mb 58f 56f
6:30pm  -   -   -  13 16 mph 1010.8mb 58f 56f
6:20pm  -   -   -  13 16 mph 1010.6mb 58f 56f
6:10pm  -   -   -  13 16 mph 1010.6mb 58f 56f
6:00pm  -   -   -  13 18 mph 1010.5mb - 56f
5:50pm 9.5ft 11s 7s 13 16 mph 1010.4mb 58f 56f
5:40pm 9.5ft  -  7s 13 18 mph 1010.4mb 58f 56f
5:30pm  -   -   -  13 18 mph 1010.2mb 58f 56f
5:20pm  -   -   -  13 18 mph 1010.1mb 58f 56f
5:10pm  -   -   -  13 16 mph 1010mb 58f 57f
5:00pm  -   -   -  13 16 mph 1009.9mb 58f 57f
4:50pm 11ft 10s 8s 13 16 mph 1009.8mb - 57f
4:40pm  -   -   -  13 18 mph 1009.5mb 58f 57f
4:30pm  -   -   -  9 13 mph 1009.4mb 58f 57f
4:20pm  -   -   -  4 9 mph 1009.4mb 58f 55f
4:10pm  -   -   -  11 22 mph 1009.2mb 58f 55f
4:00pm  -   -   -  11 16 mph 1009.1mb 58f 57f
3:50pm 11.5ft 10s 8s 11 16 mph 1008.8mb 58f 57f
3:40pm  -   -   -  13 16 mph 1008.8mb 57f 57f
3:30pm  -   -   -  13 18 mph 1008.9mb 57f 57f
3:20pm  -   -   -  13 16 mph 1008.8mb 57f 57f
3:10pm  -   -   -  13 18 mph 1008.8mb 57f 57f
3:00pm  -   -   -  13 18 mph 1008.7mb 57f 56f
2:50pm 11ft 10s 7s 13 18 mph 1008.7mb 57f 56f
2:40pm 11ft  -  7s 16 20 mph 1008.6mb 57f 57f
2:30pm  -   -   -  16 20 mph 1008.4mb 57f 57f
2:20pm  -   -   -  16 20 mph 1008.3mb 57f 57f
2:10pm  -   -   -  13 18 mph 1008.4mb 57f 57f
2:00pm  -   -   -  13 18 mph 1008.4mb 57f 57f
1:50pm 12ft 10s 8s 13 18 mph 1008.5mb 57f 56f
1:40pm  -   -   -  11 16 mph 1008.6mb 57f 56f
1:30pm  -   -   -  13 20 mph 1008.5mb 57f 56f
1:20pm  -   -   -  11 18 mph 1008.4mb 57f 56f
1:10pm  -   -   -  11 16 mph 1008.4mb 57f 55f
1:00pm  -   -   -  13 18 mph 1008.5mb 57f 54f
12:50pm 10.5ft 11s 7s 13 20 mph 1008.5mb 57f 55f
12:40pm  -   -   -  11 20 mph 1008.6mb 57f 54f
12:30pm  -   -   -  18 29 mph 1008.5mb 57f 53f
12:20pm  -   -   -  20 25 mph 1008.5mb 57f 56f
12:10pm  -   -   -  18 22 mph 1008.1mb 57f 58f
12:00pm  -   -   -  18 20 mph 1007.9mb 57f 58f
11:50am 11ft 11s 7s 18 22 mph 1008mb 57f 58f
11:40am 11ft  -  7s 16 22 mph 1008.1mb 57f 58f
11:30am  -   -   -  18 25 mph 1008mb 57f 58f
11:20am  -   -   -  18 22 mph 1007.8mb 57f 58f
11:10am  -   -   -  18 22 mph 1007.7mb 57f 58f
11:00am  -   -   -  11 20 mph 1007.7mb 56f 58f
10:50am 11ft  -  7s 11 16 mph 1007.7mb 56f 57f
10:40am 11ft 11s 7s  -  mph - - -
10:30am  -   -   -  16 20 mph 1007.5mb 56f 58f
10:20am  -   -   -  16 20 mph 1007.3mb 56f 58f
10:10am  -   -   -  16 20 mph 1007.5mb 56f 58f
10:00am  -   -   -  11 20 mph 1007.5mb 56f 57f
9:50am 11.5ft 12s 7s 11 16 mph 1007.6mb 56f 57f
9:40am  -   -   -  13 22 mph 1007.6mb 56f 56f
9:30am  -   -   -  11 16 mph 1007.5mb 56f 56f
9:20am  -   -   -  18 25 mph 1007.4mb 56f 56f
9:10am  -   -   -  18 25 mph 1007.5mb 56f 56f
9:00am  -   -   -  11 25 mph 1007.4mb 56f 57f
8:50am 11ft 12s 7s 11 16 mph 1007.3mb 56f 57f
8:40am 11ft  -  7s 13 22 mph 1007.2mb 56f 56f
8:30am  -   -   -  13 18 mph 1007mb 56f 58f
8:20am  -   -   -  13 18 mph 1007.1mb 56f 57f
8:10am  -   -   -  13 20 mph 1007.1mb 56f 56f
8:00am  -   -   -  13 22 mph 1007.3mb 56f 54f
7:50am 10ft 10s 7s 20 25 mph 1007.4mb 56f 57f
7:40am 10ft  -  7s 18 27 mph 1007mb 56f 58f
7:30am  -   -   -  16 20 mph 1006.9mb 56f 58f
7:20am  -   -   -  13 18 mph 1007mb 56f 57f
7:10am  -   -   -  11 16 mph 1007mb - 56f
7:00am  -   -   -  11 16 mph 1007.1mb 56f 56f
6:50am 10ft 12s 7s 11 16 mph 1007.1mb 56f 55f
6:40am 10ft  -  7s 13 18 mph 1007.1mb 56f 55f
6:30am  -   -   -  16 29 mph 1007.2mb 56f 55f
6:20am  -   -   -  16 22 mph 1007.2mb 56f 56f
6:10am  -   -   -  16 22 mph 1007mb 56f 57f
6:00am  -   -   -  13 18 mph 1007.1mb - 57f
5:50am 10.5ft 13s 7s 13 18 mph 1006.7mb 56f 57f
5:40am  -   -   -  18 22 mph 1006.7mb 56f 56f
5:30am  -   -   -  20 27 mph 1006.8mb 56f 57f
5:20am  -   -   -  18 25 mph 1006.7mb 56f 57f
5:10am  -   -   -  18 25 mph 1006.8mb 56f 57f
5:00am  -   -   -  22 36 mph 1006.7mb 56f 57f
4:50am 10.5ft 13s 7s 20 25 mph 1006.6mb - 58f
4:40am 10.5ft  -  7s 22 29 mph 1006.4mb 56f 58f
4:30am  -   -   -  22 31 mph 1006.2mb 56f 59f
4:20am  -   -   -  25 31 mph 1006.3mb 56f 59f
4:10am  -   -   -  22 29 mph 1006.3mb 56f 59f
4:00am  -   -   -  18 27 mph 1006.3mb 56f 58f
3:50am 10ft 11s 7s 18 27 mph 1006.2mb 56f 58f
3:40am 10ft  -  7s 22 27 mph 1006.1mb 56f 58f
3:30am  -   -   -  20 29 mph 1005.9mb 57f 56f
3:20am  -   -   -  22 36 mph 1005.9mb 57f 59f
3:10am  -   -   -  22 31 mph 1005.6mb 57f 59f
3:00am  -   -   -  22 31 mph 1005.7mb 57f 59f
2:50am 11ft 11s 8s 20 25 mph 1005.5mb 57f 58f
2:40am 11ft  -  8s 20 25 mph 1005.5mb 57f 58f
2:30am  -   -   -  20 27 mph 1005.4mb 57f 58f
2:20am  -   -   -  25 31 mph 1005.5mb 57f 58f
2:10am  -   -   -  25 31 mph 1005.5mb 57f 58f
2:00am  -   -   -  20 29 mph 1005.5mb 57f 58f
1:50am 11ft 13s 8s 18 22 mph 1005.4mb 57f 58f
1:40am 11ft  -  8s 18 25 mph 1005.4mb 57f 58f
1:30am  -   -   -  18 25 mph 1005.7mb 57f 58f
1:20am  -   -   -  18 25 mph 1005.7mb 57f 58f
1:10am  -   -   -  18 25 mph 1005.8mb 57f 58f
1:00am  -   -   -  18 25 mph 1005.8mb 57f 57f
12:50am 11ft 14s 8s 16 20 mph 1005.9mb 57f 57f
12:40am  -   -   -  16 20 mph 1006mb 57f 57f
12:30am  -   -   -  16 20 mph 1006.2mb 57f 57f
12:20am  -   -   -  16 20 mph 1006.3mb 57f 57f
12:10am  -   -   -  16 18 mph 1006.2mb 57f 57f
12:00am  -   -   -  13 20 mph 1006.5mb 57f 57f
Tue 09/19 11:50pm 11ft 13s 8s 13 18 mph 1006.5mb - 56f
11:40pm  -   -   -  13 18 mph 1006.8mb 57f 56f
11:30pm  -   -   -  16 20 mph 1007mb 57f 56f
11:20pm  -   -   -  16 18 mph 1007mb 57f 56f
11:10pm  -   -   -  13 18 mph 1007.2mb 57f 56f
11:00pm  -   -   -  16 20 mph 1007.5mb 57f 56f
10:50pm 11ft 12s 8s 16 20 mph 1007.6mb 57f 56f
10:40pm 11ft  -  8s 16 18 mph 1007.8mb 57f 56f
10:30pm  -   -   -  13 18 mph 1008mb 57f 56f
10:20pm  -   -   -  13 16 mph 1008.1mb 57f 56f
10:10pm  -   -   -  13 18 mph 1008.5mb 57f 56f
10:00pm  -   -   -  13 18 mph 1008.6mb 57f 56f
9:50pm 12.5ft 14s 9s 13 18 mph 1008.7mb 57f 56f
9:40pm  -   -   -  11 18 mph 1008.9mb 57f 56f
9:30pm  -   -   -  11 16 mph 1009.1mb 57f 56f
9:20pm  -   -   -  11 13 mph 1009.1mb 57f 56f
9:10pm  -   -   -  9 13 mph 1009.4mb 57f 55f
9:00pm  -   -   -  9 13 mph 1009.5mb 57f 55f
8:50pm 13.5ft 12s 9s 11 13 mph 1009.7mb 57f 55f
8:40pm 13.5ft  -  9s 11 16 mph 1010mb 56f 55f
8:30pm  -   -   -  11 13 mph 1010.1mb 56f 55f
8:20pm  -   -   -  13 16 mph 1010.3mb 56f 55f
8:10pm  -   -   -  16 20 mph 1010.4mb 56f 55f
8:00pm  -   -   -  18 22 mph 1010.4mb 56f 55f
7:50pm 13ft 13s 9s 16 22 mph 1010.6mb 56f 56f
7:40pm 13ft  -  9s 16 20 mph 1010.7mb - 56f
7:30pm  -   -   -  16 22 mph 1010.7mb 56f 56f
7:20pm  -   -   -  18 25 mph 1010.8mb 56f 56f
7:10pm  -   -   -  16 20 mph 1010.9mb 56f 56f
7:00pm  -   -   -  11 18 mph 1011mb 56f 57f
6:50pm 13ft 12s 9s 11 13 mph 1011.2mb 56f 57f
6:40pm 13ft  -  9s 9 13 mph 1011.3mb 56f 57f
6:30pm  -   -   -  11 16 mph 1011.4mb 56f 57f
6:20pm  -   -   -  13 18 mph 1011.5mb 56f 57f
6:10pm  -   -   -  18 25 mph 1011.6mb 56f 57f
6:00pm  -   -   -  16 22 mph 1011.7mb 56f 57f
5:50pm 15.5ft 14s 9s 13 18 mph 1011.7mb - 57f
5:40pm  -   -   -  13 16 mph 1011.8mb 56f 57f
5:30pm  -   -   -  13 18 mph 1011.9mb 56f 57f
5:20pm  -   -   -  13 16 mph 1012mb 56f 57f
5:10pm  -   -   -  13 16 mph 1012mb 55f 57f
5:00pm  -   -   -  13 18 mph 1012.1mb 55f 58f
4:50pm 15ft 12s 9s 16 18 mph 1012.2mb 55f 58f
4:40pm 15ft  -  9s 16 20 mph 1012.2mb 55f 58f
4:30pm  -   -   -  11 18 mph 1012.2mb 55f 57f
4:20pm  -   -   -  11 13 mph 1012.3mb 55f 57f
4:10pm  -   -   -  13 16 mph 1012.3mb 55f 57f
4:00pm  -   -   -  16 20 mph 1012.3mb 55f 57f
3:50pm 15ft 15s 9s 16 20 mph 1012.3mb 54f 57f
3:40pm  -   -   -  16 20 mph 1012.3mb 54f 57f
3:30pm  -   -   -  16 18 mph 1012.4mb 54f 57f
3:20pm  -   -   -  16 20 mph 1012.5mb 55f 57f
3:10pm  -   -   -  16 20 mph 1012.6mb - 58f
3:00pm  -   -   -  16 18 mph 1012.7mb 55f 57f
2:50pm 14.5ft 11s 9s 16 18 mph 1012.7mb 55f 57f
2:40pm 14.5ft  -  9s 16 18 mph 1012.8mb 55f 57f
2:30pm  -   -   -  13 18 mph 1012.8mb 54f 57f
2:20pm  -   -   -  13 18 mph 1012.8mb 54f 57f
2:10pm  -   -   -  13 18 mph 1012.8mb 54f 57f
2:00pm  -   -   -  13 18 mph 1012.8mb 54f 57f
1:50pm 15ft 14s 9s 16 20 mph 1012.9mb 55f 57f
1:40pm  -   -   -  13 18 mph 1012.9mb 55f 57f
1:30pm  -   -   -  13 18 mph 1012.9mb 55f 57f
1:20pm  -   -   -  13 16 mph 1013mb 55f 57f
1:10pm  -   -   -  13 16 mph 1013mb 55f 57f
1:00pm  -   -   -  13 18 mph 1013mb 55f 57f
12:50pm 17ft 12s 10s 13 18 mph 1013mb 55f 57f
12:40pm 17ft  -  10s 16 18 mph 1012.9mb 55f 57f
12:30pm  -   -   -  16 20 mph 1013mb 55f 57f
12:20pm  -   -   -  16 18 mph 1013mb 56f 57f
12:10pm  -   -   -  16 18 mph 1013mb 56f 57f
12:00pm  -   -   -  13 18 mph 1013mb 55f 57f
11:50am 17ft 13s 9s 13 16 mph 1013mb 56f 57f
11:40am 17ft  -  9s 13 16 mph 1012.9mb 55f 57f
11:30am  -   -   -  13 18 mph 1012.9mb 55f 58f
11:20am  -   -   -  13 18 mph 1012.8mb 56f 57f
11:10am  -   -   -  11 16 mph 1012.7mb 56f 57f
11:00am  -   -   -  11 16 mph 1012.7mb 56f 57f
10:50am 16.5ft 12s 10s 11 16 mph 1012.8mb 56f 57f
10:40am  -   -   -  11 16 mph 1012.7mb 56f 57f
10:30am  -   -   -  11 16 mph 1012.7mb 56f 58f
10:20am  -   -   -  11 16 mph 1012.7mb - 58f
10:10am  -   -   -  11 16 mph 1012.6mb 56f 58f
10:00am  -   -   -  11 16 mph 1012.5mb 56f 58f
9:50am 15.5ft 11s 9s 11 18 mph 1012.4mb 56f 58f
9:40am 15.5ft  -  9s 13 18 mph 1012.5mb 56f 58f
9:30am  -   -   -  11 20 mph 1012.4mb 56f 57f
9:20am  -   -   -  9 13 mph 1012.4mb 56f 56f
9:10am  -   -   -  11 18 mph 1012.3mb 56f 56f
9:00am  -   -   -  16 34 mph 1012.3mb 56f 56f
8:50am 15.5ft 16s 10s 11 16 mph 1012mb - 57f
8:40am 15.5ft  -  10s 11 13 mph 1012mb 55f 57f
8:30am  -   -   -  11 13 mph 1011.9mb 55f 57f
8:20am  -   -   -  11 16 mph 1011.9mb 55f 57f
8:10am  -   -   -  13 20 mph 1011.8mb 55f 58f
8:00am  -   -   -  11 18 mph 1011.7mb 55f 57f